createdAt,value
2023-06-02T00:00:12.205Z,65.51
2023-06-02T00:11:03.447Z,100.00
2023-06-02T00:16:27.016Z,100.00
2023-06-02T00:21:50.338Z,100.00
2023-06-02T00:27:15.945Z,100.00
2023-06-02T00:32:39.166Z,100.00
2023-06-02T00:38:05.881Z,100.00
2023-06-02T00:43:32.546Z,100.00
2023-06-02T00:48:58.399Z,100.00
2023-06-02T00:54:27.605Z,100.00
2023-06-02T00:59:58.400Z,100.00
2023-06-02T01:05:22.341Z,100.00
2023-06-02T01:10:46.502Z,100.00
2023-06-02T01:16:14.109Z,100.00
2023-06-02T01:22:42.022Z,100.00
2023-06-02T01:28:08.324Z,100.00
2023-06-02T01:33:41.645Z,100.00
2023-06-02T01:39:10.055Z,100.00
2023-06-02T01:44:36.912Z,100.00
2023-06-02T01:49:59.980Z,100.00
2023-06-02T01:55:24.453Z,100.00
2023-06-02T02:00:51.332Z,100.00
2023-06-02T02:06:15.549Z,100.00
2023-06-02T02:11:42.500Z,100.00
2023-06-02T02:17:07.682Z,100.00
2023-06-02T02:22:31.335Z,100.00
2023-06-02T02:28:00.527Z,100.00
2023-06-02T02:33:24.897Z,100.00
2023-06-02T02:38:48.711Z,100.00
2023-06-02T02:44:19.278Z,100.00
2023-06-02T02:49:44.953Z,100.00
2023-06-02T02:55:09.310Z,100.00
2023-06-02T03:00:34.529Z,100.00
2023-06-02T03:06:03.125Z,100.00
2023-06-02T03:11:27.680Z,100.00
2023-06-02T03:16:58.127Z,100.00
2023-06-02T03:22:32.283Z,100.00
2023-06-02T03:28:01.227Z,100.00
2023-06-02T03:33:25.547Z,100.00
2023-06-02T03:38:54.056Z,100.00
2023-06-02T03:44:17.230Z,100.00
2023-06-02T03:49:44.101Z,100.00
2023-06-02T03:55:17.369Z,100.00
2023-06-02T04:00:42.688Z,100.00
2023-06-02T04:06:06.089Z,100.00
2023-06-02T04:11:33.513Z,100.00
2023-06-02T04:16:57.630Z,100.00
2023-06-02T04:22:21.867Z,100.00
2023-06-02T04:27:50.750Z,100.00
2023-06-02T04:34:13.331Z,100.00
2023-06-02T04:40:17.544Z,100.00
2023-06-02T04:46:43.887Z,100.00
2023-06-02T04:52:08.315Z,53.36
2023-06-02T04:57:31.946Z,54.00
2023-06-02T05:02:59.117Z,59.54
2023-06-02T05:08:25.452Z,64.51
2023-06-02T05:13:49.055Z,64.51
2023-06-02T05:19:22.421Z,64.51
2023-06-02T05:24:49.821Z,64.51
2023-06-02T05:30:13.417Z,100.00
2023-06-02T05:35:40.505Z,64.51
2023-06-02T05:41:18.602Z,64.51
2023-06-02T05:46:44.526Z,41.62
2023-06-02T05:52:09.745Z,41.07
2023-06-02T05:57:41.207Z,38.31
2023-06-02T06:03:06.306Z,39.05
2023-06-02T06:08:37.051Z,40.35
2023-06-02T06:14:04.094Z,40.54
2023-06-02T06:19:27.718Z,41.32
2023-06-02T06:24:52.319Z,39.88
2023-06-02T06:30:16.018Z,39.50
2023-06-02T06:35:39.295Z,39.88
2023-06-02T06:41:12.084Z,41.95
2023-06-02T06:46:35.655Z,42.48
2023-06-02T06:52:00.137Z,38.83
2023-06-02T06:57:24.502Z,37.70
2023-06-02T07:02:49.629Z,34.65
2023-06-02T07:08:15.925Z,34.66
2023-06-02T07:13:41.633Z,34.66
2023-06-02T07:19:04.948Z,32.67
2023-06-02T07:24:28.340Z,31.22
2023-06-02T07:29:52.653Z,28.56
2023-06-02T07:35:17.231Z,26.67
2023-06-02T07:40:40.347Z,26.56
2023-06-02T07:46:05.031Z,26.19
2023-06-02T07:51:28.422Z,26.35
2023-06-02T07:56:52.307Z,27.28
2023-06-02T08:02:16.991Z,26.35
2023-06-02T08:07:40.667Z,28.01
2023-06-02T08:13:04.337Z,27.41
2023-06-02T08:18:29.991Z,28.83
2023-06-02T08:23:59.396Z,27.98
2023-06-02T08:29:23.224Z,27.37
2023-06-02T08:34:48.979Z,27.45
2023-06-02T08:40:13.839Z,25.71
2023-06-02T08:45:36.748Z,28.80
2023-06-02T08:51:06.061Z,27.72
2023-06-02T08:56:32.258Z,26.98
2023-06-02T09:01:56.834Z,26.96
2023-06-02T09:07:25.097Z,25.96
2023-06-02T09:12:50.178Z,25.91
2023-06-02T09:18:19.265Z,25.04
2023-06-02T09:23:51.481Z,25.69
2023-06-02T09:29:20.470Z,27.66
2023-06-02T09:34:46.857Z,27.83
2023-06-02T09:40:28.443Z,28.26
2023-06-02T09:46:02.420Z,29.17
2023-06-02T09:51:27.307Z,28.81
2023-06-02T09:56:52.514Z,27.35
2023-06-02T10:02:15.897Z,27.48
2023-06-02T10:07:54.726Z,26.10
2023-06-02T10:13:59.777Z,25.98
2023-06-02T10:19:50.320Z,25.56
2023-06-02T10:25:22.544Z,25.31
2023-06-02T10:31:06.680Z,25.68
2023-06-02T10:36:44.519Z,26.96
2023-06-02T10:42:09.278Z,27.72
2023-06-02T10:47:40.272Z,28.59
2023-06-02T10:53:14.475Z,30.08
2023-06-02T10:58:50.108Z,29.47
2023-06-02T11:04:31.453Z,28.68
2023-06-02T11:09:57.623Z,28.14
2023-06-02T11:15:27.531Z,27.84
2023-06-02T11:20:52.788Z,28.34
2023-06-02T11:26:17.864Z,30.08
2023-06-02T11:31:49.926Z,32.22
2023-06-02T11:37:16.073Z,31.00
2023-06-02T11:42:41.027Z,31.44
2023-06-02T11:48:20.922Z,30.61
2023-06-02T11:54:00.308Z,29.32
2023-06-02T11:59:26.916Z,29.98
2023-06-02T12:04:50.020Z,30.07
2023-06-02T12:10:31.416Z,28.99
2023-06-02T12:15:55.708Z,29.52
2023-06-02T12:21:27.472Z,27.93
2023-06-02T12:26:51.929Z,26.41
2023-06-02T12:32:17.078Z,27.38
2023-06-02T12:37:43.891Z,27.97
2023-06-02T12:43:09.202Z,28.67
2023-06-02T12:48:32.592Z,28.87
2023-06-02T12:53:56.122Z,27.72
2023-06-02T12:59:20.840Z,27.31
2023-06-02T13:04:46.630Z,27.31
2023-06-02T13:10:11.776Z,30.00
2023-06-02T13:15:35.929Z,29.73
2023-06-02T13:21:01.011Z,29.13
2023-06-02T13:26:24.082Z,29.97
2023-06-02T13:31:49.055Z,30.37
2023-06-02T13:37:14.205Z,29.10
2023-06-02T13:42:37.340Z,30.25
2023-06-02T13:48:09.615Z,31.37
2023-06-02T13:53:40.849Z,31.51
2023-06-02T13:59:19.314Z,31.11
2023-06-02T14:04:49.216Z,31.35
2023-06-02T14:10:13.008Z,30.26
2023-06-02T14:15:36.206Z,31.54
2023-06-02T14:21:05.230Z,31.65
2023-06-02T14:26:28.355Z,30.88
2023-06-02T14:31:51.824Z,30.91
2023-06-02T14:37:19.502Z,31.64
2023-06-02T14:42:42.478Z,31.78
2023-06-02T14:48:06.086Z,31.73
2023-06-02T14:53:32.751Z,31.23
2023-06-02T14:59:06.689Z,31.59
2023-06-02T15:04:34.212Z,32.58
2023-06-02T15:10:04.119Z,32.43
2023-06-02T15:15:27.269Z,32.23
2023-06-02T15:20:51.331Z,33.09
2023-06-02T15:26:23.813Z,34.33
2023-06-02T15:31:48.350Z,33.91
2023-06-02T15:37:11.437Z,34.55
2023-06-02T15:42:39.636Z,34.86
2023-06-02T15:48:02.944Z,34.57
2023-06-02T15:53:25.889Z,34.80
2023-06-02T15:58:49.897Z,34.99
2023-06-02T16:04:13.230Z,35.33
2023-06-02T16:09:36.557Z,36.30
2023-06-02T16:15:01.143Z,36.57
2023-06-02T16:20:24.337Z,37.03
2023-06-02T16:25:49.314Z,37.94
2023-06-02T16:31:27.145Z,37.14
2023-06-02T16:36:52.726Z,38.18
2023-06-02T16:42:16.438Z,38.68
2023-06-02T16:47:45.967Z,38.53
2023-06-02T16:53:09.094Z,38.44
2023-06-02T16:58:32.082Z,38.64
2023-06-02T17:03:59.926Z,38.78
2023-06-02T17:09:22.905Z,38.74
2023-06-02T17:14:46.081Z,39.32
2023-06-02T17:20:13.607Z,40.28
2023-06-02T17:25:36.674Z,41.44
2023-06-02T17:30:59.889Z,42.24
2023-06-02T17:36:27.110Z,42.29
2023-06-02T17:41:50.204Z,42.18
2023-06-02T17:47:13.316Z,42.53
2023-06-02T17:52:41.522Z,42.00
2023-06-02T17:58:04.907Z,42.74
2023-06-02T18:03:28.216Z,43.84
2023-06-02T18:08:57.292Z,45.87
2023-06-02T18:14:20.714Z,47.80
2023-06-02T18:19:44.322Z,49.55
2023-06-02T18:25:12.259Z,51.51
2023-06-02T18:30:35.527Z,53.51
2023-06-02T18:35:59.125Z,55.67
2023-06-02T18:41:27.852Z,57.30
2023-06-02T18:46:51.083Z,58.24
2023-06-02T18:52:14.677Z,60.95
2023-06-02T18:57:44.201Z,63.58
2023-06-02T19:03:07.749Z,67.23
2023-06-02T19:08:30.474Z,67.35
2023-06-02T19:13:57.686Z,70.54
2023-06-02T19:19:21.072Z,72.42
2023-06-02T19:24:44.315Z,75.62
2023-06-02T19:30:10.562Z,80.93
2023-06-02T19:35:34.773Z,84.62
2023-06-02T19:40:58.045Z,86.17
2023-06-02T19:46:32.484Z,88.31
2023-06-02T19:52:04.633Z,92.04
2023-06-02T19:57:27.795Z,94.10
2023-06-02T20:02:52.487Z,96.19
2023-06-02T20:08:17.072Z,96.81
2023-06-02T20:19:07.792Z,100.00
2023-06-02T20:24:32.773Z,100.00
2023-06-02T20:29:56.481Z,100.00
2023-06-02T20:35:19.859Z,100.00
2023-06-02T20:40:44.332Z,70.28
2023-06-02T20:46:14.106Z,100.00
2023-06-02T20:51:37.456Z,100.00
2023-06-02T20:57:02.307Z,100.00
2023-06-02T21:02:25.574Z,100.00
2023-06-02T21:07:48.995Z,100.00
2023-06-02T21:13:13.246Z,100.00
2023-06-02T21:18:49.037Z,100.00
2023-06-02T21:24:11.932Z,100.00
2023-06-02T21:29:30.904Z,100.00
2023-06-02T21:34:53.909Z,100.00
2023-06-02T21:46:22.938Z,100.00
2023-06-02T21:51:46.923Z,100.00
2023-06-02T21:57:12.252Z,100.00
2023-06-02T22:08:16.929Z,100.00
2023-06-02T22:13:40.020Z,100.00
2023-06-02T22:19:00.443Z,100.00
2023-06-02T22:24:28.370Z,100.00
2023-06-02T22:29:52.634Z,100.00
2023-06-02T22:35:18.954Z,100.00
2023-06-02T22:40:42.230Z,100.00
2023-06-02T22:46:05.357Z,100.00
2023-06-02T22:51:31.907Z,100.00
2023-06-02T22:56:56.294Z,100.00
2023-06-02T23:02:25.542Z,100.00
2023-06-02T23:07:56.597Z,100.00
2023-06-02T23:13:19.894Z,100.00
2023-06-02T23:18:47.982Z,100.00
2023-06-02T23:24:18.261Z,100.00
2023-06-02T23:29:41.579Z,100.00
2023-06-02T23:35:04.786Z,100.00
2023-06-02T23:40:30.864Z,100.00
2023-06-02T23:45:57.128Z,100.00
2023-06-02T23:51:20.029Z,100.00
2023-06-02T23:56:44.494Z,100.00
